Terminal Aerodrome Forecast
Issued by NWS Wilmington, OH

Home | Current Version | Previous Version | Text Only | Print | Product List | Glossary On
Versions: 1 2 3 4 5 6 7 8 9 10 11 12 13 14 15 16 17
188
FTUS41 KILN 271125
TAFCMH
TAF
KCMH 271125Z 2712/2812 23004KT 5SM BR SCT025 BKN040
     FM271500 24005KT P6SM SCT025 BKN050
     FM272100 21005KT P6SM VCTS SCT025CB BKN110
     FM280100 VRB03KT P6SM -SHRA VCTS SCT025CB OVC050
     FM280600 VRB03KT 6SM -SHRA BKN016 OVC025
     FM280900 VRB03KT 1SM -SHRA OVC007=

USA.gov is the U.S. government's official web portal to all federal, state and local government web resources and services.